createdAt,value
2022-12-19T00:02:18.128Z,13.37
2022-12-19T00:07:22.604Z,13.87
2022-12-19T00:12:25.796Z,13.63
2022-12-19T00:17:28.891Z,13.20
2022-12-19T00:22:33.328Z,12.93
2022-12-19T00:27:37.136Z,14.63
2022-12-19T00:32:40.375Z,13.77
2022-12-19T00:37:47.732Z,13.87
2022-12-19T00:42:53.744Z,13.47
2022-12-19T00:47:56.910Z,12.10
2022-12-19T00:53:01.464Z,13.37
2022-12-19T00:58:04.518Z,13.50
2022-12-19T01:03:07.651Z,13.53
2022-12-19T01:08:12.172Z,13.90
2022-12-19T01:13:15.960Z,13.97
2022-12-19T01:18:19.091Z,13.50
2022-12-19T01:23:23.532Z,14.00
2022-12-19T01:28:26.869Z,12.63
2022-12-19T01:33:30.260Z,13.80
2022-12-19T01:38:35.787Z,13.67
2022-12-19T01:43:57.711Z,13.10
2022-12-19T01:49:02.515Z,13.93
2022-12-19T01:54:09.806Z,12.27
2022-12-19T01:59:17.458Z,13.80
2022-12-19T02:04:21.825Z,14.23
2022-12-19T02:09:26.303Z,14.23
2022-12-19T02:14:29.925Z,14.13
2022-12-19T02:20:12.313Z,13.93
2022-12-19T02:25:40.918Z,14.07
2022-12-19T02:31:01.382Z,13.97
2022-12-19T02:36:15.968Z,13.77
2022-12-19T02:41:25.774Z,14.40
2022-12-19T02:46:30.908Z,12.80
2022-12-19T02:51:34.026Z,14.50
2022-12-19T02:56:46.101Z,14.40
2022-12-19T03:01:56.402Z,14.43
2022-12-19T03:07:05.172Z,14.80
2022-12-19T03:12:17.132Z,12.47
2022-12-19T03:17:22.201Z,13.00
2022-12-19T03:22:25.364Z,14.27
2022-12-19T03:27:32.100Z,15.03
2022-12-19T03:32:39.263Z,14.77
2022-12-19T03:37:44.158Z,15.67
2022-12-19T03:43:07.206Z,16.27
2022-12-19T03:48:15.863Z,16.60
2022-12-19T03:53:32.393Z,16.60
2022-12-19T03:58:39.562Z,16.37
2022-12-19T04:03:44.395Z,14.80
2022-12-19T04:08:48.118Z,15.57
2022-12-19T04:13:55.745Z,16.13
2022-12-19T04:19:06.581Z,16.43
2022-12-19T04:24:13.875Z,15.73
2022-12-19T04:29:17.542Z,16.03
2022-12-19T04:34:22.594Z,17.17
2022-12-19T04:39:25.858Z,18.43
2022-12-19T04:44:29.517Z,17.73
2022-12-19T04:49:34.060Z,16.67
2022-12-19T04:54:37.158Z,16.67
2022-12-19T04:59:40.223Z,16.43
2022-12-19T05:04:44.657Z,16.70
2022-12-19T05:09:47.754Z,16.70
2022-12-19T05:14:50.815Z,17.17
2022-12-19T05:19:55.265Z,18.20
2022-12-19T05:24:58.488Z,17.90
2022-12-19T05:30:02.215Z,16.40
2022-12-19T05:35:08.258Z,16.53
2022-12-19T05:40:12.518Z,15.37
2022-12-19T05:45:15.612Z,15.83
2022-12-19T05:50:20.171Z,17.77
2022-12-19T05:55:23.304Z,19.13
2022-12-19T06:00:26.320Z,16.60
2022-12-19T06:05:30.797Z,16.50
2022-12-19T06:10:33.997Z,17.43
2022-12-19T06:15:37.119Z,17.40
2022-12-19T06:20:41.589Z,14.53
2022-12-19T06:25:44.739Z,13.93
2022-12-19T06:30:47.941Z,18.17
2022-12-19T06:35:58.948Z,16.50
2022-12-19T06:41:21.013Z,16.67
2022-12-19T06:46:24.132Z,16.47
2022-12-19T06:51:28.669Z,17.13
2022-12-19T06:56:36.320Z,18.23
2022-12-19T07:01:52.602Z,16.80
2022-12-19T07:06:57.937Z,15.40
2022-12-19T07:12:01.130Z,16.00
2022-12-19T07:17:04.979Z,16.90
2022-12-19T07:22:10.631Z,17.07
2022-12-19T07:27:13.749Z,17.17
2022-12-19T07:32:16.875Z,16.67
2022-12-19T07:37:21.715Z,16.87
2022-12-19T07:42:28.186Z,17.73
2022-12-19T07:47:35.281Z,18.13
2022-12-19T07:52:39.781Z,15.93
2022-12-19T07:57:42.872Z,18.10
2022-12-19T08:02:46.992Z,16.47
2022-12-19T08:07:51.587Z,18.33
2022-12-19T08:12:54.745Z,17.37
2022-12-19T08:17:57.869Z,17.73
2022-12-19T08:23:02.369Z,19.40
2022-12-19T08:28:05.531Z,16.27
2022-12-19T08:33:09.207Z,17.40
2022-12-19T08:38:13.877Z,14.60
2022-12-19T08:43:17.068Z,17.50
2022-12-19T08:48:20.205Z,19.00
2022-12-19T08:53:26.578Z,16.60
2022-12-19T08:58:31.739Z,19.23
2022-12-19T09:03:42.829Z,18.57
2022-12-19T09:09:00.333Z,18.60
2022-12-19T09:14:05.091Z,19.57
2022-12-19T09:19:08.209Z,18.67
2022-12-19T09:24:12.700Z,18.03
2022-12-19T09:29:20.666Z,18.77
2022-12-19T09:34:25.618Z,19.50
2022-12-19T09:39:42.808Z,17.80
2022-12-19T09:44:59.231Z,19.57
2022-12-19T09:50:07.894Z,19.17
2022-12-19T09:55:18.473Z,18.50
2022-12-19T10:00:23.364Z,18.80
2022-12-19T10:06:01.795Z,19.13
2022-12-19T10:12:42.461Z,15.97
2022-12-19T10:16:37.660Z,17.53
2022-12-19T10:27:19.106Z,17.73
2022-12-19T10:32:31.139Z,18.37
2022-12-19T10:37:49.565Z,17.77
2022-12-19T10:42:59.234Z,18.23
2022-12-19T10:48:14.137Z,18.10
2022-12-19T10:53:26.167Z,18.87
2022-12-19T10:58:35.673Z,18.10
2022-12-19T11:03:40.495Z,17.90
2022-12-19T11:08:43.661Z,18.97
2022-12-19T11:18:53.108Z,18.47
2022-12-19T11:26:53.814Z,20.00
2022-12-19T11:29:39.639Z,18.10
2022-12-19T11:35:49.927Z,17.07
2022-12-19T11:40:56.541Z,18.73
2022-12-19T11:46:05.582Z,16.93
2022-12-19T11:51:18.761Z,18.83
2022-12-19T11:56:24.665Z,19.33
2022-12-19T12:02:03.662Z,19.37
2022-12-19T12:07:27.551Z,18.23
2022-12-19T12:22:02.537Z,16.80
2022-12-19T12:31:02.723Z,19.47
2022-12-19T12:31:07.084Z,19.17
2022-12-19T12:32:03.749Z,19.43
2022-12-19T12:35:41.443Z,20.40
2022-12-19T12:40:29.988Z,19.53
2022-12-19T12:45:39.071Z,19.53
2022-12-19T12:50:45.778Z,19.47
2022-12-19T12:55:53.298Z,18.27
2022-12-19T13:01:10.474Z,19.50
2022-12-19T13:06:27.689Z,19.17
2022-12-19T13:11:59.571Z,20.70
2022-12-19T13:17:03.234Z,19.77
2022-12-19T13:22:20.794Z,19.47
2022-12-19T13:27:35.015Z,20.10
2022-12-19T13:33:09.355Z,19.43
2022-12-19T13:39:47.687Z,19.37
2022-12-19T13:43:50.028Z,19.87
2022-12-19T13:48:56.687Z,18.83
2022-12-19T13:54:01.245Z,19.67
2022-12-19T13:59:07.224Z,18.07
2022-12-19T14:04:12.584Z,17.13
2022-12-19T14:11:26.841Z,16.30
2022-12-19T14:15:13.164Z,18.53
2022-12-19T14:20:48.879Z,17.90
2022-12-19T14:28:20.707Z,18.33
2022-12-19T14:31:17.696Z,17.83
2022-12-19T14:36:27.592Z,17.87
2022-12-19T14:42:01.861Z,18.23
2022-12-19T14:53:51.095Z,18.43
2022-12-19T14:54:55.255Z,18.93
2022-12-19T14:58:56.240Z,18.83
2022-12-19T15:03:52.268Z,18.80
2022-12-19T15:10:57.602Z,22.50
2022-12-19T15:14:56.320Z,13.83
2022-12-19T15:20:02.597Z,18.13
2022-12-19T15:25:06.475Z,18.03
2022-12-19T15:30:17.165Z,18.07
2022-12-19T15:35:20.618Z,19.10
2022-12-19T15:40:24.003Z,20.77
2022-12-19T15:45:30.710Z,19.30
2022-12-19T15:50:34.107Z,19.00
2022-12-19T15:55:39.589Z,18.10
2022-12-19T16:00:50.075Z,19.03
2022-12-19T16:05:53.501Z,17.83
2022-12-19T16:11:01.817Z,18.87
2022-12-19T16:16:15.052Z,18.40
2022-12-19T16:21:25.930Z,18.43
2022-12-19T16:26:35.644Z,19.90
2022-12-19T16:31:40.260Z,18.83
2022-12-19T16:36:43.652Z,21.27
2022-12-19T16:41:47.423Z,19.60
2022-12-19T16:46:52.514Z,24.53
2022-12-19T16:51:55.785Z,26.83
2022-12-19T16:56:59.326Z,24.70
2022-12-19T17:02:16.055Z,22.60
2022-12-19T17:07:20.321Z,22.57
2022-12-19T17:12:26.148Z,22.93
2022-12-19T17:17:30.665Z,20.10
2022-12-19T17:22:33.773Z,20.73
2022-12-19T17:27:36.866Z,21.93
2022-12-19T17:32:41.585Z,23.53
2022-12-19T17:37:49.030Z,22.73
2022-12-19T17:42:52.425Z,19.30
2022-12-19T17:48:02.508Z,18.70
2022-12-19T17:53:06.905Z,19.17
2022-12-19T17:58:10.850Z,19.13
2022-12-19T18:03:21.601Z,19.33
2022-12-19T18:08:27.768Z,19.63
2022-12-19T18:13:32.250Z,19.57
2022-12-19T18:18:37.255Z,17.87
2022-12-19T18:23:40.380Z,17.90
2022-12-19T18:28:43.738Z,16.83
2022-12-19T18:33:48.984Z,18.30
2022-12-19T18:38:52.922Z,22.63
2022-12-19T18:43:56.120Z,30.13
2022-12-19T18:49:01.005Z,22.97
2022-12-19T18:54:06.993Z,20.30
2022-12-19T18:59:11.112Z,18.73
2022-12-19T19:04:17.816Z,22.93
2022-12-19T19:09:22.621Z,31.13
2022-12-19T19:14:25.868Z,20.50
2022-12-19T19:19:30.477Z,20.73
2022-12-19T19:24:33.914Z,18.97
2022-12-19T19:29:37.116Z,18.80
2022-12-19T19:34:43.401Z,17.23
2022-12-19T19:39:47.765Z,17.93
2022-12-19T19:44:50.986Z,17.90
2022-12-19T19:49:56.769Z,17.67
2022-12-19T19:55:00.108Z,19.27
2022-12-19T20:00:04.400Z,19.07
2022-12-19T20:05:10.537Z,18.53
2022-12-19T20:10:14.036Z,16.27
2022-12-19T20:15:17.272Z,19.03
2022-12-19T20:20:21.923Z,17.73
2022-12-19T20:25:25.100Z,21.23
2022-12-19T20:30:28.299Z,19.77
2022-12-19T20:35:32.951Z,20.13
2022-12-19T20:40:36.117Z,19.00
2022-12-19T20:45:39.303Z,20.27
2022-12-19T20:50:45.469Z,18.10
2022-12-19T20:55:57.775Z,16.40
2022-12-19T21:01:06.917Z,17.30
2022-12-19T21:06:13.540Z,17.90
2022-12-19T21:11:16.837Z,17.00
2022-12-19T21:16:22.521Z,16.60
2022-12-19T21:21:28.965Z,15.10
2022-12-19T21:26:32.454Z,17.43
2022-12-19T21:31:35.899Z,16.63
2022-12-19T21:36:44.641Z,17.53
2022-12-19T21:41:47.772Z,16.60
2022-12-19T21:46:51.203Z,16.73
2022-12-19T21:51:55.896Z,17.70
2022-12-19T21:56:59.109Z,17.70
2022-12-19T22:02:02.392Z,18.13
2022-12-19T22:07:07.781Z,20.00
2022-12-19T22:12:13.696Z,19.97
2022-12-19T22:17:16.938Z,18.63
2022-12-19T22:22:21.503Z,17.50
2022-12-19T22:27:25.115Z,18.17
2022-12-19T22:32:28.412Z,17.80
2022-12-19T22:37:33.126Z,18.10
2022-12-19T22:42:36.473Z,16.97
2022-12-19T22:47:42.447Z,17.50
2022-12-19T22:52:46.944Z,16.60
2022-12-19T22:57:50.196Z,15.73
2022-12-19T23:02:53.748Z,17.47
2022-12-19T23:07:58.484Z,17.90
2022-12-19T23:13:01.672Z,17.30
2022-12-19T23:18:04.907Z,16.60
2022-12-19T23:23:09.602Z,18.30
2022-12-19T23:28:12.760Z,19.03
2022-12-19T23:33:15.922Z,17.97
2022-12-19T23:38:20.519Z,18.50
2022-12-19T23:43:23.684Z,17.30
2022-12-19T23:48:28.426Z,17.87
2022-12-19T23:53:45.548Z,19.30
2022-12-19T23:58:48.973Z,17.77
